sensor_id;sensor_type;location;lat;lon;timestamp;P1;durP1;ratioP1;P2;durP2;ratioP2
11066;SDS011;29763;50.904;5.530;2023-09-19T00:13:12;6.93;;;2.75;;
11066;SDS011;29763;50.904;5.530;2023-09-19T00:15:41;7.47;;;2.50;;
11066;SDS011;29763;50.904;5.530;2023-09-19T00:18:22;5.78;;;2.33;;
11066;SDS011;29763;50.904;5.530;2023-09-19T00:55:10;8.82;;;2.50;;
11066;SDS011;29763;50.904;5.530;2023-09-19T01:09:27;11.13;;;2.63;;
11066;SDS011;29763;50.904;5.530;2023-09-19T01:11:53;7.00;;;2.42;;
11066;SDS011;29763;50.904;5.530;2023-09-19T01:17:43;8.95;;;2.38;;
11066;SDS011;29763;50.904;5.530;2023-09-19T02:14:11;9.07;;;2.47;;
11066;SDS011;29763;50.904;5.530;2023-09-19T02:16:53;7.93;;;2.50;;
11066;SDS011;29763;50.904;5.530;2023-09-19T02:19:37;7.28;;;2.90;;
11066;SDS011;29763;50.904;5.530;2023-09-19T02:23:13;8.80;;;2.40;;
11066;SDS011;29763;50.904;5.530;2023-09-19T02:35:14;7.72;;;2.70;;
11066;SDS011;29763;50.904;5.530;2023-09-19T02:38:01;9.32;;;2.80;;
11066;SDS011;29763;50.904;5.530;2023-09-19T03:07:06;7.70;;;2.60;;
11066;SDS011;29763;50.904;5.530;2023-09-19T03:32:59;8.68;;;2.78;;
11066;SDS011;29763;50.904;5.530;2023-09-19T03:36:04;7.47;;;2.55;;
11066;SDS011;29763;50.904;5.530;2023-09-19T03:38:39;9.50;;;2.80;;
11066;SDS011;29763;50.904;5.530;2023-09-19T03:41:17;13.40;;;3.22;;
11066;SDS011;29763;50.904;5.530;2023-09-19T03:43:52;8.60;;;2.72;;
11066;SDS011;29763;50.904;5.530;2023-09-19T03:46:48;7.60;;;2.47;;
11066;SDS011;29763;50.904;5.530;2023-09-19T03:49:14;9.93;;;3.25;;
11066;SDS011;29763;50.904;5.530;2023-09-19T03:51:51;6.55;;;2.45;;
11066;SDS011;29763;50.904;5.530;2023-09-19T03:58:22;8.13;;;2.88;;
11066;SDS011;29763;50.904;5.530;2023-09-19T04:01:23;14.55;;;3.22;;
11066;SDS011;29763;50.904;5.530;2023-09-19T04:03:58;9.82;;;2.63;;
11066;SDS011;29763;50.904;5.530;2023-09-19T04:06:45;9.52;;;2.60;;
11066;SDS011;29763;50.904;5.530;2023-09-19T04:09:14;8.45;;;2.95;;
11066;SDS011;29763;50.904;5.530;2023-09-19T04:11:50;9.18;;;3.35;;
11066;SDS011;29763;50.904;5.530;2023-09-19T04:14:35;5.55;;;2.58;;
11066;SDS011;29763;50.904;5.530;2023-09-19T04:17:02;9.13;;;2.65;;
11066;SDS011;29763;50.904;5.530;2023-09-19T04:19:47;10.23;;;2.50;;
11066;SDS011;29763;50.904;5.530;2023-09-19T04:25:33;9.68;;;2.90;;
11066;SDS011;29763;50.904;5.530;2023-09-19T04:31:18;8.88;;;2.45;;
11066;SDS011;29763;50.904;5.530;2023-09-19T04:34:02;5.45;;;2.45;;
11066;SDS011;29763;50.904;5.530;2023-09-19T04:36:42;8.65;;;2.70;;
11066;SDS011;29763;50.904;5.530;2023-09-19T04:39:11;9.07;;;2.60;;
11066;SDS011;29763;50.904;5.530;2023-09-19T04:41:51;6.85;;;2.42;;
11066;SDS011;29763;50.904;5.530;2023-09-19T04:44:28;9.82;;;3.15;;
11066;SDS011;29763;50.904;5.530;2023-09-19T04:47:14;12.70;;;3.10;;
11066;SDS011;29763;50.904;5.530;2023-09-19T04:53:11;5.63;;;2.40;;
11066;SDS011;29763;50.904;5.530;2023-09-19T04:58:37;9.20;;;2.88;;
11066;SDS011;29763;50.904;5.530;2023-09-19T05:01:06;10.93;;;2.60;;
11066;SDS011;29763;50.904;5.530;2023-09-19T05:03:45;15.77;;;3.20;;
11066;SDS011;29763;50.904;5.530;2023-09-19T05:06:17;8.00;;;2.85;;
11066;SDS011;29763;50.904;5.530;2023-09-19T05:14:26;10.07;;;2.97;;
11066;SDS011;29763;50.904;5.530;2023-09-19T05:17:05;8.38;;;2.67;;
11066;SDS011;29763;50.904;5.530;2023-09-19T05:19:40;8.85;;;2.40;;
11066;SDS011;29763;50.904;5.530;2023-09-19T05:22:28;11.30;;;2.88;;
11066;SDS011;29763;50.904;5.530;2023-09-19T05:24:58;10.40;;;2.90;;
11066;SDS011;29763;50.904;5.530;2023-09-19T05:27:54;9.90;;;2.95;;
11066;SDS011;29763;50.904;5.530;2023-09-19T05:30:48;8.52;;;3.08;;
11066;SDS011;29763;50.904;5.530;2023-09-19T05:41:06;12.55;;;3.25;;
11066;SDS011;29763;50.904;5.530;2023-09-19T05:47:44;8.45;;;2.40;;
11066;SDS011;29763;50.904;5.530;2023-09-19T05:51:00;10.18;;;3.15;;
11066;SDS011;29763;50.904;5.530;2023-09-19T06:36:05;7.40;;;2.60;;
11066;SDS011;29763;50.904;5.530;2023-09-19T06:38:43;10.60;;;2.97;;
11066;SDS011;29763;50.904;5.530;2023-09-19T06:42:04;7.68;;;2.88;;
11066;SDS011;29763;50.904;5.530;2023-09-19T06:45:20;8.07;;;2.60;;
11066;SDS011;29763;50.904;5.530;2023-09-19T06:48:27;10.68;;;3.10;;
11066;SDS011;29763;50.904;5.530;2023-09-19T07:09:08;7.65;;;2.45;;
11066;SDS011;29763;50.904;5.530;2023-09-19T07:11:41;11.25;;;2.38;;
11066;SDS011;29763;50.904;5.530;2023-09-19T07:14:10;9.15;;;2.38;;
11066;SDS011;29763;50.904;5.530;2023-09-19T07:16:55;9.20;;;2.60;;
11066;SDS011;29763;50.904;5.530;2023-09-19T07:19:21;9.90;;;2.63;;
11066;SDS011;29763;50.904;5.530;2023-09-19T07:21:47;7.45;;;2.03;;
11066;SDS011;29763;50.904;5.530;2023-09-19T07:24:12;6.07;;;2.10;;
11066;SDS011;29763;50.904;5.530;2023-09-19T07:26:38;8.68;;;2.50;;
11066;SDS011;29763;50.904;5.530;2023-09-19T07:29:05;10.52;;;2.67;;
11066;SDS011;29763;50.904;5.530;2023-09-19T07:31:32;7.53;;;2.17;;
11066;SDS011;29763;50.904;5.530;2023-09-19T07:33:58;7.32;;;2.55;;
11066;SDS011;29763;50.904;5.530;2023-09-19T07:36:25;8.55;;;2.80;;
11066;SDS011;29763;50.904;5.530;2023-09-19T07:38:51;7.35;;;2.47;;
11066;SDS011;29763;50.904;5.530;2023-09-19T07:41:17;8.35;;;2.58;;
11066;SDS011;29763;50.904;5.530;2023-09-19T07:43:43;6.78;;;2.38;;
11066;SDS011;29763;50.904;5.530;2023-09-19T07:46:09;8.23;;;2.40;;
11066;SDS011;29763;50.904;5.530;2023-09-19T07:48:36;8.68;;;2.80;;
11066;SDS011;29763;50.904;5.530;2023-09-19T07:51:04;8.48;;;2.33;;
11066;SDS011;29763;50.904;5.530;2023-09-19T07:53:34;10.68;;;2.60;;
11066;SDS011;29763;50.904;5.530;2023-09-19T07:58:30;8.68;;;2.55;;
11066;SDS011;29763;50.904;5.530;2023-09-19T08:00:56;9.45;;;2.67;;
11066;SDS011;29763;50.904;5.530;2023-09-19T08:03:28;5.25;;;2.40;;
11066;SDS011;29763;50.904;5.530;2023-09-19T08:05:55;8.73;;;2.58;;
11066;SDS011;29763;50.904;5.530;2023-09-19T08:08:22;8.73;;;2.80;;
11066;SDS011;29763;50.904;5.530;2023-09-19T08:10:52;6.70;;;2.30;;
11066;SDS011;29763;50.904;5.530;2023-09-19T08:13:22;7.75;;;2.17;;
11066;SDS011;29763;50.904;5.530;2023-09-19T08:15:48;6.60;;;2.50;;
11066;SDS011;29763;50.904;5.530;2023-09-19T08:18:16;6.60;;;2.17;;
11066;SDS011;29763;50.904;5.530;2023-09-19T08:20:42;7.57;;;2.63;;
11066;SDS011;29763;50.904;5.530;2023-09-19T08:23:11;10.75;;;2.35;;
11066;SDS011;29763;50.904;5.530;2023-09-19T08:25:36;6.15;;;2.25;;
11066;SDS011;29763;50.904;5.530;2023-09-19T08:28:04;5.28;;;2.00;;
11066;SDS011;29763;50.904;5.530;2023-09-19T08:30:34;6.70;;;2.30;;
11066;SDS011;29763;50.904;5.530;2023-09-19T08:33:00;6.55;;;2.30;;
11066;SDS011;29763;50.904;5.530;2023-09-19T08:35:29;5.35;;;2.30;;
11066;SDS011;29763;50.904;5.530;2023-09-19T08:37:55;5.70;;;2.35;;
11066;SDS011;29763;50.904;5.530;2023-09-19T08:40:21;6.10;;;2.17;;
11066;SDS011;29763;50.904;5.530;2023-09-19T08:42:51;7.82;;;2.47;;
11066;SDS011;29763;50.904;5.530;2023-09-19T08:45:20;4.78;;;2.20;;
11066;SDS011;29763;50.904;5.530;2023-09-19T08:53:26;8.00;;;2.65;;
11066;SDS011;29763;50.904;5.530;2023-09-19T08:55:57;8.30;;;2.13;;
11066;SDS011;29763;50.904;5.530;2023-09-19T08:58:31;8.02;;;2.58;;
11066;SDS011;29763;50.904;5.530;2023-09-19T09:01:00;7.05;;;2.50;;
11066;SDS011;29763;50.904;5.530;2023-09-19T09:03:26;7.25;;;2.28;;
11066;SDS011;29763;50.904;5.530;2023-09-19T09:05:56;6.28;;;2.33;;
11066;SDS011;29763;50.904;5.530;2023-09-19T09:08:26;6.32;;;2.45;;
11066;SDS011;29763;50.904;5.530;2023-09-19T09:10:53;6.53;;;2.45;;
11066;SDS011;29763;50.904;5.530;2023-09-19T09:13:20;8.45;;;2.15;;
11066;SDS011;29763;50.904;5.530;2023-09-19T09:15:47;7.80;;;2.10;;
11066;SDS011;29763;50.904;5.530;2023-09-19T09:18:13;5.28;;;2.28;;
11066;SDS011;29763;50.904;5.530;2023-09-19T09:20:39;6.22;;;2.30;;
11066;SDS011;29763;50.904;5.530;2023-09-19T09:23:05;6.57;;;2.20;;
11066;SDS011;29763;50.904;5.530;2023-09-19T09:25:47;9.48;;;2.80;;
11066;SDS011;29763;50.904;5.530;2023-09-19T09:28:23;7.00;;;2.20;;
11066;SDS011;29763;50.904;5.530;2023-09-19T09:30:50;6.70;;;2.30;;
11066;SDS011;29763;50.904;5.530;2023-09-19T09:33:16;6.95;;;2.97;;
11066;SDS011;29763;50.904;5.530;2023-09-19T09:38:21;6.22;;;2.40;;
11066;SDS011;29763;50.904;5.530;2023-09-19T09:40:52;6.47;;;2.35;;
11066;SDS011;29763;50.904;5.530;2023-09-19T09:43:39;6.35;;;2.38;;
11066;SDS011;29763;50.904;5.530;2023-09-19T09:48:48;6.53;;;2.10;;
11066;SDS011;29763;50.904;5.530;2023-09-19T09:51:40;6.53;;;2.47;;
11066;SDS011;29763;50.904;5.530;2023-09-19T09:54:22;6.93;;;2.40;;
11066;SDS011;29763;50.904;5.530;2023-09-19T09:56:53;4.47;;;2.38;;
11066;SDS011;29763;50.904;5.530;2023-09-19T10:02:15;5.85;;;2.58;;
11066;SDS011;29763;50.904;5.530;2023-09-19T10:05:13;8.45;;;2.60;;
11066;SDS011;29763;50.904;5.530;2023-09-19T10:07:46;8.27;;;2.58;;
11066;SDS011;29763;50.904;5.530;2023-09-19T10:10:34;5.60;;;2.22;;
11066;SDS011;29763;50.904;5.530;2023-09-19T10:13:19;4.85;;;2.45;;
11066;SDS011;29763;50.904;5.530;2023-09-19T10:15:49;7.22;;;2.33;;
11066;SDS011;29763;50.904;5.530;2023-09-19T10:18:20;6.65;;;2.50;;
11066;SDS011;29763;50.904;5.530;2023-09-19T10:20:49;8.32;;;3.10;;
11066;SDS011;29763;50.904;5.530;2023-09-19T10:23:16;7.75;;;3.10;;
11066;SDS011;29763;50.904;5.530;2023-09-19T10:25:47;5.30;;;2.63;;
11066;SDS011;29763;50.904;5.530;2023-09-19T10:28:14;6.63;;;2.53;;
11066;SDS011;29763;50.904;5.530;2023-09-19T10:30:45;6.30;;;2.30;;
11066;SDS011;29763;50.904;5.530;2023-09-19T10:33:15;8.18;;;2.60;;
11066;SDS011;29763;50.904;5.530;2023-09-19T10:35:43;7.78;;;2.67;;
11066;SDS011;29763;50.904;5.530;2023-09-19T10:38:10;6.18;;;2.40;;
11066;SDS011;29763;50.904;5.530;2023-09-19T10:40:38;6.93;;;2.33;;
11066;SDS011;29763;50.904;5.530;2023-09-19T10:43:20;4.57;;;2.30;;
11066;SDS011;29763;50.904;5.530;2023-09-19T10:45:51;7.97;;;2.50;;
11066;SDS011;29763;50.904;5.530;2023-09-19T10:48:22;6.32;;;2.38;;
11066;SDS011;29763;50.904;5.530;2023-09-19T10:50:57;3.92;;;2.17;;
11066;SDS011;29763;50.904;5.530;2023-09-19T10:53:32;6.30;;;2.35;;
11066;SDS011;29763;50.904;5.530;2023-09-19T10:59:05;5.40;;;2.08;;
11066;SDS011;29763;50.904;5.530;2023-09-19T11:01:45;7.78;;;2.20;;
11066;SDS011;29763;50.904;5.530;2023-09-19T11:04:30;5.22;;;2.20;;
11066;SDS011;29763;50.904;5.530;2023-09-19T11:07:13;6.32;;;1.92;;
11066;SDS011;29763;50.904;5.530;2023-09-19T11:12:47;4.88;;;2.20;;
11066;SDS011;29763;50.904;5.530;2023-09-19T11:15:06;7.30;;;2.65;;
11066;SDS011;29763;50.904;5.530;2023-09-19T11:17:37;5.18;;;2.20;;
11066;SDS011;29763;50.904;5.530;2023-09-19T11:30:36;7.50;;;2.10;;
11066;SDS011;29763;50.904;5.530;2023-09-19T11:33:19;5.18;;;2.00;;
11066;SDS011;29763;50.904;5.530;2023-09-19T11:43:49;5.50;;;1.98;;
11066;SDS011;29763;50.904;5.530;2023-09-19T11:46:16;6.28;;;2.17;;
11066;SDS011;29763;50.904;5.530;2023-09-19T11:48:49;5.53;;;2.00;;
11066;SDS011;29763;50.904;5.530;2023-09-19T11:51:18;3.42;;;1.75;;
11066;SDS011;29763;50.904;5.530;2023-09-19T11:53:51;3.90;;;1.90;;
11066;SDS011;29763;50.904;5.530;2023-09-19T11:56:20;6.15;;;2.10;;
11066;SDS011;29763;50.904;5.530;2023-09-19T11:58:50;6.18;;;2.50;;
11066;SDS011;29763;50.904;5.530;2023-09-19T12:01:27;6.35;;;2.33;;
11066;SDS011;29763;50.904;5.530;2023-09-19T12:04:02;5.85;;;2.08;;
11066;SDS011;29763;50.904;5.530;2023-09-19T12:06:32;7.75;;;1.85;;
11066;SDS011;29763;50.904;5.530;2023-09-19T12:08:58;3.13;;;1.50;;
11066;SDS011;29763;50.904;5.530;2023-09-19T12:11:27;2.60;;;1.60;;
11066;SDS011;29763;50.904;5.530;2023-09-19T12:13:58;5.45;;;1.92;;
11066;SDS011;29763;50.904;5.530;2023-09-19T12:16:26;2.85;;;1.42;;
11066;SDS011;29763;50.904;5.530;2023-09-19T12:18:55;3.17;;;1.65;;
11066;SDS011;29763;50.904;5.530;2023-09-19T12:21:29;3.63;;;1.52;;
11066;SDS011;29763;50.904;5.530;2023-09-19T12:24:11;3.67;;;1.60;;
11066;SDS011;29763;50.904;5.530;2023-09-19T12:26:44;3.30;;;1.50;;
11066;SDS011;29763;50.904;5.530;2023-09-19T12:31:55;3.33;;;1.40;;
11066;SDS011;29763;50.904;5.530;2023-09-19T12:34:29;4.65;;;1.60;;
11066;SDS011;29763;50.904;5.530;2023-09-19T12:37:15;3.65;;;1.40;;
11066;SDS011;29763;50.904;5.530;2023-09-19T12:39:46;3.85;;;1.50;;
11066;SDS011;29763;50.904;5.530;2023-09-19T12:42:19;3.60;;;1.55;;
11066;SDS011;29763;50.904;5.530;2023-09-19T12:44:48;3.25;;;1.38;;
11066;SDS011;29763;50.904;5.530;2023-09-19T12:47:20;3.78;;;1.25;;
11066;SDS011;29763;50.904;5.530;2023-09-19T12:52:41;3.67;;;1.30;;
11066;SDS011;29763;50.904;5.530;2023-09-19T12:55:24;4.88;;;1.40;;
11066;SDS011;29763;50.904;5.530;2023-09-19T13:00:21;3.10;;;1.60;;
11066;SDS011;29763;50.904;5.530;2023-09-19T13:06:03;4.25;;;1.30;;
11066;SDS011;29763;50.904;5.530;2023-09-19T13:11:00;3.72;;;1.20;;
11066;SDS011;29763;50.904;5.530;2023-09-19T13:13:27;4.25;;;1.40;;
11066;SDS011;29763;50.904;5.530;2023-09-19T13:15:53;3.53;;;1.08;;
11066;SDS011;29763;50.904;5.530;2023-09-19T13:18:22;2.38;;;1.33;;
11066;SDS011;29763;50.904;5.530;2023-09-19T13:21:10;3.78;;;1.50;;
11066;SDS011;29763;50.904;5.530;2023-09-19T13:23:43;1.75;;;1.05;;
11066;SDS011;29763;50.904;5.530;2023-09-19T13:26:09;2.72;;;1.20;;
11066;SDS011;29763;50.904;5.530;2023-09-19T13:28:37;3.13;;;1.20;;
11066;SDS011;29763;50.904;5.530;2023-09-19T13:31:05;2.42;;;1.02;;
11066;SDS011;29763;50.904;5.530;2023-09-19T13:33:33;6.32;;;1.40;;
11066;SDS011;29763;50.904;5.530;2023-09-19T13:36:00;3.05;;;1.20;;
11066;SDS011;29763;50.904;5.530;2023-09-19T13:38:26;3.30;;;1.20;;
11066;SDS011;29763;50.904;5.530;2023-09-19T13:40:53;4.00;;;1.20;;
11066;SDS011;29763;50.904;5.530;2023-09-19T13:43:19;3.88;;;1.50;;
11066;SDS011;29763;50.904;5.530;2023-09-19T13:45:47;3.20;;;1.38;;
11066;SDS011;29763;50.904;5.530;2023-09-19T13:48:12;4.20;;;1.40;;
11066;SDS011;29763;50.904;5.530;2023-09-19T13:50:38;3.10;;;1.13;;
11066;SDS011;29763;50.904;5.530;2023-09-19T13:53:07;4.22;;;1.48;;
11066;SDS011;29763;50.904;5.530;2023-09-19T13:55:33;2.72;;;1.30;;
11066;SDS011;29763;50.904;5.530;2023-09-19T13:57:59;2.63;;;1.38;;
11066;SDS011;29763;50.904;5.530;2023-09-19T14:00:25;3.03;;;1.33;;
11066;SDS011;29763;50.904;5.530;2023-09-19T14:02:51;2.42;;;1.48;;
11066;SDS011;29763;50.904;5.530;2023-09-19T14:05:17;4.90;;;1.30;;
11066;SDS011;29763;50.904;5.530;2023-09-19T14:07:43;2.88;;;1.40;;
11066;SDS011;29763;50.904;5.530;2023-09-19T14:10:10;5.18;;;1.58;;
11066;SDS011;29763;50.904;5.530;2023-09-19T14:12:37;2.55;;;1.42;;
11066;SDS011;29763;50.904;5.530;2023-09-19T14:15:06;2.47;;;1.23;;
11066;SDS011;29763;50.904;5.530;2023-09-19T14:17:34;3.05;;;1.23;;
11066;SDS011;29763;50.904;5.530;2023-09-19T14:19:59;3.35;;;1.33;;
11066;SDS011;29763;50.904;5.530;2023-09-19T14:22:25;2.83;;;1.20;;
11066;SDS011;29763;50.904;5.530;2023-09-19T14:24:51;4.72;;;1.40;;
11066;SDS011;29763;50.904;5.530;2023-09-19T14:27:17;2.92;;;1.27;;
11066;SDS011;29763;50.904;5.530;2023-09-19T14:29:43;2.83;;;1.10;;
11066;SDS011;29763;50.904;5.530;2023-09-19T14:32:10;3.97;;;1.50;;
11066;SDS011;29763;50.904;5.530;2023-09-19T14:34:37;4.07;;;1.42;;
11066;SDS011;29763;50.904;5.530;2023-09-19T14:37:07;2.33;;;1.10;;
11066;SDS011;29763;50.904;5.530;2023-09-19T14:39:33;3.75;;;1.50;;
11066;SDS011;29763;50.904;5.530;2023-09-19T14:41:59;4.03;;;1.38;;
11066;SDS011;29763;50.904;5.530;2023-09-19T14:44:24;3.03;;;1.77;;
11066;SDS011;29763;50.904;5.530;2023-09-19T14:46:50;4.75;;;1.80;;
11066;SDS011;29763;50.904;5.530;2023-09-19T14:49:16;3.17;;;1.70;;
11066;SDS011;29763;50.904;5.530;2023-09-19T14:51:42;3.65;;;1.50;;
11066;SDS011;29763;50.904;5.530;2023-09-19T14:54:12;3.38;;;1.40;;
11066;SDS011;29763;50.904;5.530;2023-09-19T14:56:41;3.65;;;1.63;;
11066;SDS011;29763;50.904;5.530;2023-09-19T14:59:07;2.78;;;1.60;;
11066;SDS011;29763;50.904;5.530;2023-09-19T15:01:35;3.63;;;1.52;;
11066;SDS011;29763;50.904;5.530;2023-09-19T15:04:01;3.45;;;1.13;;
11066;SDS011;29763;50.904;5.530;2023-09-19T15:06:27;4.25;;;1.55;;
11066;SDS011;29763;50.904;5.530;2023-09-19T15:08:54;3.67;;;1.70;;
11066;SDS011;29763;50.904;5.530;2023-09-19T15:11:20;3.88;;;1.60;;
11066;SDS011;29763;50.904;5.530;2023-09-19T15:13:46;4.05;;;1.50;;
11066;SDS011;29763;50.904;5.530;2023-09-19T15:16:13;3.22;;;1.55;;
11066;SDS011;29763;50.904;5.530;2023-09-19T15:18:40;4.60;;;1.70;;
11066;SDS011;29763;50.904;5.530;2023-09-19T15:21:08;5.15;;;1.88;;
11066;SDS011;29763;50.904;5.530;2023-09-19T15:23:36;3.45;;;1.15;;
11066;SDS011;29763;50.904;5.530;2023-09-19T15:26:06;4.00;;;1.60;;
11066;SDS011;29763;50.904;5.530;2023-09-19T15:28:38;2.85;;;1.45;;
11066;SDS011;29763;50.904;5.530;2023-09-19T15:31:06;3.22;;;1.48;;
11066;SDS011;29763;50.904;5.530;2023-09-19T15:33:33;3.17;;;1.50;;
11066;SDS011;29763;50.904;5.530;2023-09-19T15:38:31;4.35;;;1.60;;
11066;SDS011;29763;50.904;5.530;2023-09-19T15:41:18;5.40;;;1.60;;
11066;SDS011;29763;50.904;5.530;2023-09-19T15:43:45;3.67;;;1.70;;
11066;SDS011;29763;50.904;5.530;2023-09-19T15:46:11;2.75;;;1.40;;
11066;SDS011;29763;50.904;5.530;2023-09-19T15:48:38;3.70;;;1.60;;
11066;SDS011;29763;50.904;5.530;2023-09-19T15:51:04;3.90;;;1.70;;
11066;SDS011;29763;50.904;5.530;2023-09-19T15:53:41;3.60;;;1.70;;
11066;SDS011;29763;50.904;5.530;2023-09-19T15:56:12;4.20;;;1.65;;
11066;SDS011;29763;50.904;5.530;2023-09-19T15:58:41;5.10;;;1.80;;
11066;SDS011;29763;50.904;5.530;2023-09-19T16:01:08;3.10;;;1.60;;
11066;SDS011;29763;50.904;5.530;2023-09-19T16:03:35;2.33;;;1.50;;
11066;SDS011;29763;50.904;5.530;2023-09-19T16:06:02;4.53;;;1.90;;
11066;SDS011;29763;50.904;5.530;2023-09-19T16:08:43;3.92;;;1.90;;
11066;SDS011;29763;50.904;5.530;2023-09-19T16:11:11;3.03;;;1.80;;
11066;SDS011;29763;50.904;5.530;2023-09-19T16:13:38;2.55;;;1.50;;
11066;SDS011;29763;50.904;5.530;2023-09-19T16:16:05;4.55;;;1.90;;
11066;SDS011;29763;50.904;5.530;2023-09-19T16:18:33;4.50;;;1.83;;
11066;SDS011;29763;50.904;5.530;2023-09-19T16:21:05;2.80;;;1.50;;
11066;SDS011;29763;50.904;5.530;2023-09-19T16:23:33;2.80;;;1.70;;
11066;SDS011;29763;50.904;5.530;2023-09-19T16:26:07;6.70;;;2.30;;
11066;SDS011;29763;50.904;5.530;2023-09-19T16:28:37;7.15;;;2.60;;
11066;SDS011;29763;50.904;5.530;2023-09-19T16:31:03;4.78;;;2.40;;
11066;SDS011;29763;50.904;5.530;2023-09-19T16:33:31;4.18;;;2.05;;
11066;SDS011;29763;50.904;5.530;2023-09-19T16:35:58;3.65;;;1.90;;
11066;SDS011;29763;50.904;5.530;2023-09-19T16:38:25;7.57;;;2.35;;
11066;SDS011;29763;50.904;5.530;2023-09-19T16:40:52;3.10;;;1.88;;
11066;SDS011;29763;50.904;5.530;2023-09-19T16:43:25;3.47;;;1.80;;
11066;SDS011;29763;50.904;5.530;2023-09-19T16:45:55;4.32;;;2.20;;
11066;SDS011;29763;50.904;5.530;2023-09-19T16:48:29;4.68;;;2.00;;
11066;SDS011;29763;50.904;5.530;2023-09-19T16:50:58;4.13;;;1.90;;
11066;SDS011;29763;50.904;5.530;2023-09-19T16:53:29;2.78;;;1.75;;
11066;SDS011;29763;50.904;5.530;2023-09-19T16:56:00;5.15;;;1.70;;
11066;SDS011;29763;50.904;5.530;2023-09-19T16:58:27;3.60;;;1.65;;
11066;SDS011;29763;50.904;5.530;2023-09-19T17:00:54;4.88;;;2.33;;
11066;SDS011;29763;50.904;5.530;2023-09-19T17:03:20;6.70;;;2.08;;
11066;SDS011;29763;50.904;5.530;2023-09-19T17:05:48;8.98;;;2.30;;
11066;SDS011;29763;50.904;5.530;2023-09-19T17:08:14;4.13;;;2.17;;
11066;SDS011;29763;50.904;5.530;2023-09-19T17:10:39;6.30;;;2.40;;
11066;SDS011;29763;50.904;5.530;2023-09-19T17:13:08;5.68;;;2.00;;
11066;SDS011;29763;50.904;5.530;2023-09-19T17:15:36;4.78;;;1.90;;
11066;SDS011;29763;50.904;5.530;2023-09-19T17:18:02;5.88;;;2.10;;
11066;SDS011;29763;50.904;5.530;2023-09-19T17:20:34;2.70;;;1.60;;
11066;SDS011;29763;50.904;5.530;2023-09-19T17:23:06;6.13;;;2.00;;
11066;SDS011;29763;50.904;5.530;2023-09-19T17:25:32;5.03;;;2.00;;
11066;SDS011;29763;50.904;5.530;2023-09-19T17:27:58;5.10;;;1.90;;
11066;SDS011;29763;50.904;5.530;2023-09-19T17:30:24;6.47;;;1.67;;
11066;SDS011;29763;50.904;5.530;2023-09-19T17:32:51;5.35;;;2.08;;
11066;SDS011;29763;50.904;5.530;2023-09-19T17:35:18;4.10;;;1.60;;
11066;SDS011;29763;50.904;5.530;2023-09-19T17:37:44;3.05;;;1.50;;
11066;SDS011;29763;50.904;5.530;2023-09-19T17:40:10;4.50;;;1.80;;
11066;SDS011;29763;50.904;5.530;2023-09-19T17:42:39;3.58;;;2.10;;
11066;SDS011;29763;50.904;5.530;2023-09-19T17:45:12;4.47;;;1.98;;
11066;SDS011;29763;50.904;5.530;2023-09-19T17:47:39;4.72;;;1.77;;
11066;SDS011;29763;50.904;5.530;2023-09-19T17:50:06;4.07;;;1.90;;
11066;SDS011;29763;50.904;5.530;2023-09-19T17:52:37;2.38;;;1.63;;
11066;SDS011;29763;50.904;5.530;2023-09-19T17:55:12;3.47;;;1.50;;
11066;SDS011;29763;50.904;5.530;2023-09-19T17:57:39;5.53;;;2.00;;
11066;SDS011;29763;50.904;5.530;2023-09-19T18:00:06;3.55;;;1.67;;
11066;SDS011;29763;50.904;5.530;2023-09-19T18:02:35;3.50;;;1.67;;
11066;SDS011;29763;50.904;5.530;2023-09-19T18:05:03;3.53;;;1.88;;
11066;SDS011;29763;50.904;5.530;2023-09-19T18:07:29;4.43;;;1.83;;
11066;SDS011;29763;50.904;5.530;2023-09-19T18:09:56;3.22;;;1.63;;
11066;SDS011;29763;50.904;5.530;2023-09-19T18:12:24;4.25;;;1.63;;
11066;SDS011;29763;50.904;5.530;2023-09-19T18:14:51;3.95;;;1.92;;
11066;SDS011;29763;50.904;5.530;2023-09-19T18:17:17;3.33;;;1.65;;
11066;SDS011;29763;50.904;5.530;2023-09-19T18:19:46;4.30;;;1.80;;
11066;SDS011;29763;50.904;5.530;2023-09-19T18:22:13;4.38;;;2.13;;
11066;SDS011;29763;50.904;5.530;2023-09-19T18:24:39;4.35;;;1.42;;
11066;SDS011;29763;50.904;5.530;2023-09-19T18:27:06;6.22;;;1.65;;
11066;SDS011;29763;50.904;5.530;2023-09-19T18:29:33;4.75;;;1.65;;
11066;SDS011;29763;50.904;5.530;2023-09-19T18:31:59;3.53;;;1.67;;
11066;SDS011;29763;50.904;5.530;2023-09-19T18:34:25;3.92;;;1.70;;
11066;SDS011;29763;50.904;5.530;2023-09-19T18:36:51;3.38;;;1.77;;
11066;SDS011;29763;50.904;5.530;2023-09-19T18:39:19;4.22;;;1.80;;
11066;SDS011;29763;50.904;5.530;2023-09-19T18:41:49;3.97;;;1.98;;
11066;SDS011;29763;50.904;5.530;2023-09-19T18:44:15;5.35;;;2.03;;
11066;SDS011;29763;50.904;5.530;2023-09-19T18:46:42;4.38;;;1.70;;
11066;SDS011;29763;50.904;5.530;2023-09-19T18:49:09;3.42;;;1.80;;
11066;SDS011;29763;50.904;5.530;2023-09-19T18:51:38;4.68;;;1.85;;
11066;SDS011;29763;50.904;5.530;2023-09-19T18:54:05;6.55;;;2.03;;
11066;SDS011;29763;50.904;5.530;2023-09-19T18:56:31;3.63;;;1.88;;
11066;SDS011;29763;50.904;5.530;2023-09-19T18:58:57;4.85;;;1.85;;
11066;SDS011;29763;50.904;5.530;2023-09-19T19:01:22;4.75;;;1.90;;
11066;SDS011;29763;50.904;5.530;2023-09-19T19:03:51;3.00;;;1.42;;
11066;SDS011;29763;50.904;5.530;2023-09-19T19:06:17;4.45;;;1.98;;
11066;SDS011;29763;50.904;5.530;2023-09-19T19:08:43;3.75;;;1.85;;
11066;SDS011;29763;50.904;5.530;2023-09-19T19:11:12;3.35;;;2.03;;
11066;SDS011;29763;50.904;5.530;2023-09-19T19:13:41;3.17;;;1.98;;
11066;SDS011;29763;50.904;5.530;2023-09-19T19:16:09;5.22;;;2.10;;
11066;SDS011;29763;50.904;5.530;2023-09-19T19:18:37;4.07;;;1.67;;
11066;SDS011;29763;50.904;5.530;2023-09-19T19:21:04;4.38;;;2.08;;
11066;SDS011;29763;50.904;5.530;2023-09-19T19:23:34;4.22;;;1.90;;
11066;SDS011;29763;50.904;5.530;2023-09-19T19:26:03;5.40;;;2.17;;
11066;SDS011;29763;50.904;5.530;2023-09-19T19:28:32;3.75;;;2.00;;
11066;SDS011;29763;50.904;5.530;2023-09-19T19:31:07;2.67;;;1.75;;
11066;SDS011;29763;50.904;5.530;2023-09-19T19:33:34;4.18;;;2.00;;
11066;SDS011;29763;50.904;5.530;2023-09-19T19:36:06;4.93;;;2.45;;
11066;SDS011;29763;50.904;5.530;2023-09-19T19:38:33;4.00;;;2.40;;
11066;SDS011;29763;50.904;5.530;2023-09-19T19:41:00;6.18;;;2.15;;
11066;SDS011;29763;50.904;5.530;2023-09-19T19:43:29;5.25;;;2.10;;
11066;SDS011;29763;50.904;5.530;2023-09-19T19:45:56;5.10;;;2.17;;
11066;SDS011;29763;50.904;5.530;2023-09-19T19:48:25;4.70;;;2.15;;
11066;SDS011;29763;50.904;5.530;2023-09-19T19:50:51;4.25;;;1.70;;
11066;SDS011;29763;50.904;5.530;2023-09-19T19:53:20;6.10;;;2.03;;
11066;SDS011;29763;50.904;5.530;2023-09-19T19:55:48;3.60;;;1.98;;
11066;SDS011;29763;50.904;5.530;2023-09-19T19:58:14;4.70;;;2.00;;
11066;SDS011;29763;50.904;5.530;2023-09-19T20:00:40;2.72;;;1.90;;
11066;SDS011;29763;50.904;5.530;2023-09-19T20:03:08;4.65;;;1.92;;
11066;SDS011;29763;50.904;5.530;2023-09-19T20:05:38;3.22;;;2.10;;
11066;SDS011;29763;50.904;5.530;2023-09-19T20:08:05;5.93;;;2.20;;
11066;SDS011;29763;50.904;5.530;2023-09-19T20:10:32;4.00;;;2.15;;
11066;SDS011;29763;50.904;5.530;2023-09-19T20:12:59;6.55;;;2.13;;
11066;SDS011;29763;50.904;5.530;2023-09-19T20:15:25;4.53;;;2.10;;
11066;SDS011;29763;50.904;5.530;2023-09-19T20:17:55;4.18;;;2.13;;
11066;SDS011;29763;50.904;5.530;2023-09-19T20:20:24;3.35;;;2.03;;
11066;SDS011;29763;50.904;5.530;2023-09-19T20:22:52;3.80;;;2.15;;
11066;SDS011;29763;50.904;5.530;2023-09-19T20:25:19;6.07;;;2.22;;
11066;SDS011;29763;50.904;5.530;2023-09-19T20:27:45;3.65;;;2.00;;
11066;SDS011;29763;50.904;5.530;2023-09-19T20:30:14;5.43;;;2.00;;
11066;SDS011;29763;50.904;5.530;2023-09-19T20:32:41;4.47;;;2.22;;
11066;SDS011;29763;50.904;5.530;2023-09-19T20:35:11;4.35;;;2.03;;
11066;SDS011;29763;50.904;5.530;2023-09-19T20:37:39;4.65;;;2.00;;